Mount Union, Pennsylvania
Current Conditions -  °F | °C
As of 3:53 AM on Thursday 27 Nov 2014 (Local Time) from KAOO Reporting Station
Haze Haze  
Wind Chill: 25°   Ceiling: 1100
Heat Index: 30°   Visibility: 5mi
Dew Point: 29°   Wind: 5mph
Humidity: 96%   Direction: 190°S
Pressure: 29.96"   Gusts: NA
Location:  40.38°N, 77.88°W
Report Text: KAOO 270853Z AUTO 19004KT 5SM BR BKN011 OVC055 M01/M02 A2996 RMK AO2 SLP160 T10111017 58002
Loading
Personal Weather Stations






























Interactive Weather Map New forecast layout! Learn more

10-Day Weather Forecast

Advertisements
Track Severe Weather on mobile